aerodrome LA FERTE GAUCHER, LFFG, pilots, aviation, flying | pilotspace.eu

LA FERTE GAUCHER

aerodrome LA FERTE GAUCHER

ICAO/ID: LFFG
France
web: Réservé au parachutisme et aux avions de servitude
show on the map

LFPM 300530Z AUTO VRB01KT 0100 FG VV/// 15/15 Q1025

TAF LFPG 292300Z 3000/0106 20004KT 4000 BR SCT008 PROB40 TEMPO 3000/3008 0400 BCFG BKN001 BECMG 3008/3010 8000 NSW SCT012 PROB30 TEMPO 3015/3018 FEW030TCU BECMG 3013/3016 VRB02KT BECMG 0100/0103 3000 BR PROB40 TEMPO 0103/0106 0500 BCFG BKN001 TX22/3014Z TN12/0105Z

general information

altitude: 538 ft
latitude: 48 45 21 N
longitude: 003 16 36 E

traffic information

RWY: 05/23: 3,609 ft (1,100 m) — surface unknown
report copyright

Online pilot logbook: free for each registered member! http://www.pilotlogbook.eu


last flights

RECENTLY ADDED

CIAF 2014

CIAF 2014

07/09/2014 (15x)

Jenki

Virus start na bramkę

Virus start na bramkę ...

04/09/2014 (4x)

oslkj

The Arrow

The Arrow

15/08/2014 (28x)

lukin

STYLUS X3

STYLUS X3 "Beauty"

01/08/2014 (9x)

Jenki

Poprad

Poprad

31/07/2014 (42x)

Jenki

Let.příručka ALTO

09/03/2014 (15x)

Roman Máca

Let.příručka ALTO

09/03/2014 (4x)

Roman Máca

ULRBK

08/02/2014 (16x)

northwolf